createdAt,value
2022-08-25T00:03:16.725Z,2.80
2022-08-25T00:06:42.837Z,3.28
2022-08-25T00:10:08.380Z,3.25
2022-08-25T00:13:30.293Z,2.90
2022-08-25T00:16:52.514Z,2.90
2022-08-25T00:20:18.438Z,3.50
2022-08-25T00:23:40.283Z,3.35
2022-08-25T00:27:02.493Z,3.22
2022-08-25T00:30:24.517Z,3.63
2022-08-25T00:33:47.696Z,2.80
2022-08-25T00:37:10.156Z,3.10
2022-08-25T00:40:31.987Z,3.00
2022-08-25T00:43:57.374Z,3.40
2022-08-25T00:47:20.758Z,3.38
2022-08-25T00:50:42.599Z,3.58
2022-08-25T00:54:05.450Z,3.38
2022-08-25T00:57:34.857Z,3.30
2022-08-25T01:00:58.051Z,3.13
2022-08-25T01:04:20.895Z,3.35
2022-08-25T01:07:44.721Z,4.07
2022-08-25T01:11:10.309Z,3.25
2022-08-25T01:14:33.574Z,3.80
2022-08-25T01:17:59.865Z,3.50
2022-08-25T01:21:23.495Z,3.05
2022-08-25T01:24:56.268Z,3.40
2022-08-25T01:28:19.914Z,3.33
2022-08-25T01:31:42.296Z,3.20
2022-08-25T01:35:04.337Z,3.95
2022-08-25T01:38:26.535Z,3.35
2022-08-25T01:42:06.240Z,3.78
2022-08-25T01:45:28.885Z,3.42
2022-08-25T01:48:50.976Z,3.30
2022-08-25T01:52:16.381Z,3.15
2022-08-25T01:55:54.202Z,3.53
2022-08-25T01:59:23.965Z,3.40
2022-08-25T02:02:46.428Z,3.30
2022-08-25T02:06:16.056Z,3.42
2022-08-25T02:09:38.319Z,3.50
2022-08-25T02:13:00.245Z,3.40
2022-08-25T02:16:28.330Z,3.67
2022-08-25T02:19:50.191Z,3.90
2022-08-25T02:23:12.113Z,4.05
2022-08-25T02:26:34.357Z,3.70
2022-08-25T02:29:56.127Z,4.28
2022-08-25T02:33:17.980Z,3.72
2022-08-25T02:36:41.352Z,4.03
2022-08-25T02:40:05.012Z,3.70
2022-08-25T02:43:28.377Z,3.47
2022-08-25T02:46:50.164Z,3.47
2022-08-25T02:50:12.232Z,3.70
2022-08-25T02:53:35.202Z,3.67
2022-08-25T02:56:56.981Z,3.35
2022-08-25T03:00:19.070Z,3.80
2022-08-25T03:03:43.621Z,3.60
2022-08-25T03:07:05.657Z,3.45
2022-08-25T03:10:27.800Z,3.85
2022-08-25T03:13:52.249Z,3.65
2022-08-25T03:17:14.362Z,3.72
2022-08-25T03:20:36.090Z,3.47
2022-08-25T03:23:59.567Z,3.47
2022-08-25T03:27:21.222Z,3.55
2022-08-25T03:30:43.200Z,4.22
2022-08-25T03:34:05.508Z,4.43
2022-08-25T03:37:27.889Z,3.85
2022-08-25T03:40:49.911Z,4.00
2022-08-25T03:44:11.702Z,3.55
2022-08-25T03:47:34.216Z,4.10
2022-08-25T03:50:55.942Z,3.63
2022-08-25T03:54:21.029Z,4.18
2022-08-25T03:57:42.787Z,4.00
2022-08-25T04:01:04.729Z,3.85
2022-08-25T04:04:26.466Z,4.00
2022-08-25T04:07:48.239Z,4.20
2022-08-25T04:11:13.179Z,3.67
2022-08-25T04:14:34.940Z,4.00
2022-08-25T04:17:58.631Z,4.30
2022-08-25T04:21:22.150Z,4.40
2022-08-25T04:24:44.232Z,4.63
2022-08-25T04:28:06.368Z,4.38
2022-08-25T04:31:29.092Z,4.55
2022-08-25T04:34:50.972Z,3.85
2022-08-25T04:38:12.671Z,3.92
2022-08-25T04:41:34.885Z,4.50
2022-08-25T04:44:57.118Z,4.13
2022-08-25T04:48:19.698Z,4.60
2022-08-25T04:51:41.919Z,4.25
2022-08-25T04:55:04.426Z,4.40
2022-08-25T04:58:27.374Z,4.47
2022-08-25T05:01:49.677Z,4.35
2022-08-25T05:05:12.854Z,4.75
2022-08-25T05:08:35.826Z,4.65
2022-08-25T05:11:57.597Z,4.70
2022-08-25T05:15:37.915Z,5.20
2022-08-25T05:18:59.649Z,4.07
2022-08-25T05:22:21.398Z,4.60
2022-08-25T05:25:44.561Z,4.40
2022-08-25T05:29:06.818Z,4.38
2022-08-25T05:32:28.888Z,4.68
2022-08-25T05:35:50.961Z,4.30
2022-08-25T05:39:13.026Z,4.32
2022-08-25T05:42:35.487Z,4.20
2022-08-25T05:45:58.489Z,4.43
2022-08-25T05:49:20.340Z,4.47
2022-08-25T05:52:42.283Z,4.68
2022-08-25T05:56:04.444Z,4.65
2022-08-25T05:59:26.179Z,4.95
2022-08-25T06:02:49.513Z,4.25
2022-08-25T06:06:11.233Z,4.55
2022-08-25T06:09:32.981Z,4.22
2022-08-25T06:12:54.870Z,4.50
2022-08-25T06:16:19.833Z,5.00
2022-08-25T06:19:41.581Z,4.68
2022-08-25T06:23:03.343Z,4.43
2022-08-25T06:26:25.498Z,4.50
2022-08-25T06:29:47.203Z,4.82
2022-08-25T06:33:09.121Z,4.38
2022-08-25T06:36:33.036Z,4.30
2022-08-25T06:39:55.563Z,3.75
2022-08-25T06:43:17.540Z,3.88
2022-08-25T06:46:39.364Z,3.72
2022-08-25T06:50:03.844Z,3.97
2022-08-25T06:53:25.620Z,3.33
2022-08-25T06:56:47.504Z,3.10
2022-08-25T07:00:12.486Z,3.90
2022-08-25T07:03:34.369Z,3.05
2022-08-25T07:06:56.199Z,2.90
2022-08-25T07:10:19.505Z,2.88
2022-08-25T07:13:41.634Z,2.95
2022-08-25T07:17:03.713Z,2.58
2022-08-25T07:20:35.545Z,2.60
2022-08-25T07:24:00.067Z,1.90
2022-08-25T07:27:22.454Z,2.25
2022-08-25T07:30:44.693Z,2.10
2022-08-25T07:34:32.279Z,2.08
2022-08-25T07:37:58.820Z,2.30
2022-08-25T07:41:20.559Z,2.28
2022-08-25T07:44:43.375Z,2.25
2022-08-25T07:48:10.667Z,2.15
2022-08-25T07:51:32.423Z,2.10
2022-08-25T07:54:55.068Z,2.05
2022-08-25T07:58:18.161Z,2.10
2022-08-25T08:01:40.223Z,2.10
2022-08-25T08:05:02.752Z,2.30
2022-08-25T08:08:24.523Z,2.13
2022-08-25T08:11:54.026Z,1.83
2022-08-25T08:15:16.293Z,2.33
2022-08-25T08:18:38.383Z,2.47
2022-08-25T08:22:02.324Z,2.22
2022-08-25T08:25:27.294Z,2.28
2022-08-25T08:28:52.195Z,2.50
2022-08-25T08:32:14.261Z,2.50
2022-08-25T08:35:36.987Z,2.45
2022-08-25T08:38:58.871Z,2.22
2022-08-25T08:42:42.853Z,2.80
2022-08-25T08:46:08.607Z,2.40
2022-08-25T08:49:44.445Z,2.42
2022-08-25T08:53:15.031Z,2.70
2022-08-25T08:56:45.402Z,2.72
2022-08-25T09:00:10.812Z,2.67
2022-08-25T09:03:35.315Z,2.60
2022-08-25T09:06:59.786Z,2.67
2022-08-25T09:10:26.413Z,2.72
2022-08-25T09:14:18.973Z,2.55
2022-08-25T09:18:18.346Z,2.30
2022-08-25T09:22:35.037Z,2.85
2022-08-25T09:26:14.954Z,2.58
2022-08-25T09:29:53.464Z,2.75
2022-08-25T09:33:21.557Z,2.97
2022-08-25T09:36:45.292Z,2.70
2022-08-25T09:40:07.928Z,2.95
2022-08-25T09:43:41.074Z,2.60
2022-08-25T09:47:18.858Z,2.70
2022-08-25T09:50:45.218Z,3.10
2022-08-25T09:54:15.187Z,2.80
2022-08-25T09:57:44.487Z,2.42
2022-08-25T10:01:13.519Z,2.72
2022-08-25T10:04:38.563Z,3.13
2022-08-25T10:08:10.922Z,2.75
2022-08-25T10:11:48.257Z,2.72
2022-08-25T10:15:39.744Z,2.90
2022-08-25T10:19:04.778Z,2.90
2022-08-25T10:22:32.159Z,3.45
2022-08-25T10:25:57.827Z,2.83
2022-08-25T10:29:51.625Z,2.63
2022-08-25T10:33:27.510Z,2.67
2022-08-25T10:37:37.771Z,2.55
2022-08-25T10:41:04.851Z,2.88
2022-08-25T10:44:52.024Z,2.40
2022-08-25T10:48:22.294Z,2.63
2022-08-25T10:51:51.114Z,3.08
2022-08-25T10:55:25.947Z,2.50
2022-08-25T10:59:19.686Z,2.65
2022-08-25T11:02:53.847Z,2.70
2022-08-25T11:06:49.248Z,2.42
2022-08-25T11:10:20.134Z,1.80
2022-08-25T11:13:50.575Z,2.33
2022-08-25T11:17:34.199Z,2.28
2022-08-25T11:21:11.943Z,2.45
2022-08-25T11:24:40.767Z,2.60
2022-08-25T11:28:11.732Z,2.28
2022-08-25T11:31:40.480Z,2.40
2022-08-25T11:35:09.765Z,2.22
2022-08-25T11:39:00.315Z,2.50
2022-08-25T11:43:00.727Z,2.30
2022-08-25T11:46:31.359Z,2.50
2022-08-25T11:50:03.264Z,2.35
2022-08-25T11:53:30.209Z,2.38
2022-08-25T11:57:06.388Z,2.33
2022-08-25T12:00:44.710Z,2.13
2022-08-25T12:04:44.920Z,2.40
2022-08-25T12:08:26.387Z,2.53
2022-08-25T12:11:53.689Z,2.08
2022-08-25T12:15:32.459Z,2.15
2022-08-25T12:19:14.402Z,2.38
2022-08-25T12:22:36.303Z,2.30
2022-08-25T12:26:30.547Z,2.08
2022-08-25T12:30:22.132Z,2.40
2022-08-25T12:34:05.113Z,2.03
2022-08-25T12:37:28.971Z,2.00
2022-08-25T12:40:50.842Z,2.40
2022-08-25T12:44:35.055Z,2.03
2022-08-25T12:48:28.992Z,1.90
2022-08-25T12:51:54.119Z,1.83
2022-08-25T12:55:16.401Z,1.73
2022-08-25T12:59:01.048Z,1.85
2022-08-25T13:02:51.622Z,1.77
2022-08-25T13:06:34.078Z,2.15
2022-08-25T13:10:18.839Z,2.40
2022-08-25T13:13:57.426Z,2.30
2022-08-25T13:17:28.322Z,1.70
2022-08-25T13:21:23.100Z,1.80
2022-08-25T13:28:27.484Z,1.23
2022-08-25T13:31:58.473Z,2.17
2022-08-25T13:35:32.280Z,1.70
2022-08-25T13:38:54.521Z,1.63
2022-08-25T13:42:17.682Z,1.50
2022-08-25T13:45:48.076Z,1.83
2022-08-25T13:49:13.775Z,1.88
2022-08-25T13:52:35.562Z,1.70
2022-08-25T13:56:03.564Z,1.98
2022-08-25T13:59:31.123Z,1.73
2022-08-25T14:02:53.887Z,1.98
2022-08-25T14:06:15.796Z,1.63
2022-08-25T14:09:51.538Z,1.70
2022-08-25T14:13:31.272Z,1.50
2022-08-25T14:17:11.996Z,1.80
2022-08-25T14:20:47.854Z,1.63
2022-08-25T14:24:09.897Z,1.75
2022-08-25T14:27:38.726Z,1.60
2022-08-25T14:31:14.928Z,2.00
2022-08-25T14:34:39.575Z,1.70
2022-08-25T14:38:09.235Z,1.80
2022-08-25T14:41:31.549Z,1.92
2022-08-25T14:44:53.215Z,1.48
2022-08-25T14:48:28.014Z,1.67
2022-08-25T14:51:49.908Z,1.98
2022-08-25T14:55:12.789Z,1.70
2022-08-25T14:58:51.153Z,2.40
2022-08-25T15:02:20.413Z,1.73
2022-08-25T15:05:42.496Z,1.80
2022-08-25T15:09:07.901Z,1.83
2022-08-25T15:12:46.974Z,1.95
2022-08-25T15:16:10.378Z,2.30
2022-08-25T15:19:34.166Z,1.77
2022-08-25T15:22:56.441Z,1.90
2022-08-25T15:26:19.370Z,1.90
2022-08-25T15:29:41.612Z,1.77
2022-08-25T15:33:03.553Z,1.80
2022-08-25T15:36:27.015Z,1.70
2022-08-25T15:39:49.047Z,2.53
2022-08-25T15:43:10.841Z,2.42
2022-08-25T15:46:35.083Z,1.80
2022-08-25T15:50:10.051Z,1.95
2022-08-25T15:53:31.804Z,1.80
2022-08-25T15:56:54.232Z,1.75
2022-08-25T16:00:18.106Z,1.50
2022-08-25T16:03:40.262Z,1.90
2022-08-25T16:07:02.039Z,1.63
2022-08-25T16:10:26.665Z,1.50
2022-08-25T16:13:48.811Z,1.52
2022-08-25T16:17:10.555Z,1.88
2022-08-25T16:20:35.123Z,2.00
2022-08-25T16:24:04.416Z,1.50
2022-08-25T16:27:29.015Z,1.58
2022-08-25T16:31:00.878Z,1.85
2022-08-25T16:34:28.500Z,1.60
2022-08-25T16:37:51.029Z,1.50
2022-08-25T16:41:16.139Z,1.50
2022-08-25T16:44:39.753Z,1.90
2022-08-25T16:48:03.367Z,1.45
2022-08-25T16:51:28.924Z,1.70
2022-08-25T16:55:10.369Z,1.65
2022-08-25T16:58:33.287Z,1.70
2022-08-25T17:01:55.543Z,1.73
2022-08-25T17:05:18.401Z,1.73
2022-08-25T17:08:40.925Z,1.60
2022-08-25T17:12:03.645Z,1.55
2022-08-25T17:15:27.433Z,1.70
2022-08-25T17:18:49.450Z,1.85
2022-08-25T17:22:15.522Z,1.65
2022-08-25T17:25:41.300Z,2.08
2022-08-25T17:29:05.335Z,1.85
2022-08-25T17:32:30.447Z,2.00
2022-08-25T17:35:55.221Z,2.00
2022-08-25T17:39:18.481Z,1.90
2022-08-25T17:42:40.649Z,1.92
2022-08-25T17:46:02.875Z,2.00
2022-08-25T17:49:25.650Z,3.15
2022-08-25T17:52:47.734Z,3.88
2022-08-25T17:56:16.910Z,2.75
2022-08-25T17:59:40.449Z,2.28
2022-08-25T18:03:04.328Z,2.40
2022-08-25T18:06:29.401Z,2.30
2022-08-25T18:09:53.889Z,2.35
2022-08-25T18:13:16.605Z,2.40
2022-08-25T18:16:40.682Z,2.30
2022-08-25T18:20:08.066Z,2.30
2022-08-25T18:23:30.674Z,2.10
2022-08-25T18:26:52.811Z,2.30
2022-08-25T18:30:14.739Z,2.25
2022-08-25T18:33:36.532Z,2.00
2022-08-25T18:37:18.298Z,2.60
2022-08-25T18:40:41.710Z,2.38
2022-08-25T18:44:04.216Z,2.20
2022-08-25T18:47:25.969Z,2.85
2022-08-25T18:50:50.643Z,2.30
2022-08-25T18:54:23.687Z,2.55
2022-08-25T18:57:46.318Z,2.90
2022-08-25T19:01:08.102Z,2.70
2022-08-25T19:04:33.461Z,3.05
2022-08-25T19:07:55.201Z,2.30
2022-08-25T19:11:22.350Z,2.88
2022-08-25T19:14:44.287Z,2.72
2022-08-25T19:18:09.877Z,3.20
2022-08-25T19:21:33.776Z,2.92
2022-08-25T19:24:55.610Z,3.22
2022-08-25T19:28:18.350Z,2.95
2022-08-25T19:31:42.000Z,3.10
2022-08-25T19:35:04.241Z,2.90
2022-08-25T19:38:35.355Z,2.83
2022-08-25T19:41:57.433Z,3.20
2022-08-25T19:45:22.320Z,2.65
2022-08-25T19:48:44.199Z,2.65
2022-08-25T19:52:10.414Z,3.28
2022-08-25T19:55:32.762Z,3.20
2022-08-25T19:58:54.607Z,3.03
2022-08-25T20:02:20.460Z,3.50
2022-08-25T20:05:43.774Z,3.72
2022-08-25T20:09:05.921Z,3.63
2022-08-25T20:12:28.568Z,3.47
2022-08-25T20:15:50.320Z,3.70
2022-08-25T20:19:12.879Z,3.72
2022-08-25T20:22:35.268Z,3.38
2022-08-25T20:25:57.007Z,3.28
2022-08-25T20:29:18.693Z,3.63
2022-08-25T20:32:40.434Z,3.88
2022-08-25T20:36:04.670Z,3.22
2022-08-25T20:39:26.406Z,3.30
2022-08-25T20:42:48.276Z,3.67
2022-08-25T20:46:10.120Z,3.33
2022-08-25T20:49:37.677Z,3.78
2022-08-25T20:52:59.767Z,3.45
2022-08-25T20:56:23.906Z,3.30
2022-08-25T20:59:45.686Z,3.30
2022-08-25T21:03:08.162Z,3.70
2022-08-25T21:06:31.383Z,3.70
2022-08-25T21:09:53.298Z,2.88
2022-08-25T21:13:15.178Z,3.78
2022-08-25T21:16:38.103Z,3.58
2022-08-25T21:20:00.273Z,4.07
2022-08-25T21:23:22.959Z,3.45
2022-08-25T21:26:49.729Z,3.75
2022-08-25T21:30:12.254Z,3.33
2022-08-25T21:33:35.175Z,3.45
2022-08-25T21:36:58.193Z,3.75
2022-08-25T21:40:22.746Z,3.63
2022-08-25T21:43:45.556Z,3.45
2022-08-25T21:47:09.558Z,3.72
2022-08-25T21:50:31.515Z,3.45
2022-08-25T21:54:08.875Z,3.40
2022-08-25T21:57:30.852Z,3.83
2022-08-25T22:00:52.832Z,4.10
2022-08-25T22:04:15.301Z,3.78
2022-08-25T22:07:40.420Z,3.38
2022-08-25T22:11:05.651Z,3.67
2022-08-25T22:14:27.869Z,3.72
2022-08-25T22:17:49.653Z,3.95
2022-08-25T22:21:12.092Z,3.80
2022-08-25T22:24:34.640Z,3.40
2022-08-25T22:27:57.146Z,3.65
2022-08-25T22:31:20.957Z,4.25
2022-08-25T22:34:43.624Z,3.70
2022-08-25T22:38:06.509Z,3.47
2022-08-25T22:41:30.029Z,3.80
2022-08-25T22:44:51.800Z,3.78
2022-08-25T22:48:13.582Z,3.90
2022-08-25T22:51:35.963Z,4.00
2022-08-25T22:54:57.656Z,4.03
2022-08-25T22:58:19.448Z,3.55
2022-08-25T23:01:43.815Z,3.55
2022-08-25T23:05:06.939Z,3.50
2022-08-25T23:08:38.880Z,3.40
2022-08-25T23:12:01.204Z,3.45
2022-08-25T23:15:23.185Z,3.63
2022-08-25T23:18:46.747Z,3.78
2022-08-25T23:22:12.524Z,3.47
2022-08-25T23:25:38.670Z,3.80
2022-08-25T23:29:00.501Z,3.58
2022-08-25T23:32:25.495Z,3.67
2022-08-25T23:35:59.871Z,3.85
2022-08-25T23:39:22.393Z,3.88
2022-08-25T23:42:44.160Z,4.25
2022-08-25T23:46:09.859Z,3.55
2022-08-25T23:49:32.842Z,3.53
2022-08-25T23:52:55.131Z,3.35
2022-08-25T23:56:17.241Z,3.40
2022-08-25T23:59:39.030Z,3.60
